KLAS/LAS METAR and TAF weather

Enter ICAO airport designator
Station Type Date Time Source
KLAS METAR 2020/04/03 22:56 UTC NOAA

KLAS 032256Z 06007KT 10SM FEW200 BKN250 23/M08 A2980 RMK AO2 SLP077 T02281078 $


Station Type Date Time Source
KLAS Decoded METAR 2020/04/03 22:56 UTC NOAA

MCCARRAN INTERNATIONAL AIRPORT , NV, United States (KLAS) 36-07N 115-16W 636M
Apr 03, 2020 - 06:56 PM EDT / 2020.04.03 2256 UTC
Wind: from the ENE (060 degrees) at 8 MPH (7 KT):0
Visibility: 10 mile(s):0
Sky conditions: mostly cloudy
Temperature: 73.0 F (22.8 C)
Dew Point: 18.0 F (-7.8 C)
Relative Humidity: 12%
Pressure (altimeter): 29.8 in. Hg (1009 hPa)
ob: KLAS 032256Z 06007KT 10SM FEW200 BKN250 23/M08 A2980 RMK AO2 SLP077 T02281078
cycle: 23

Station Type Date Time Source
KLAS TAF 2020/04/03 21:57 UTC NOAA

TAF
AMD KLAS 032055Z 0321/0424 09006KT P6SM SCT180 SCT250
FM040300 21007KT P6SM FEW180 SCT250
FM041200 19008KT P6SM SCT180 BKN250

Example: see airport list